EW0206 Weather Reports


Display with metric or nautical units.
time (UTC)temp
F
wind
direction
speed
MPH
gust
MPH
rain 1hr
in
rain 24hr
in
rain mn
in
humidity
%
barometer
mb
20191020024649 66 95 0.0 0.0 0.00 0.00 0.00 30 1006.3
20191020023159 66 94 0.0 1.0 0.00 0.00 0.00 31 1006.2
20191020021652 66 39 0.0 1.0 0.00 0.00 0.00 31 1006.2
20191020020123 66 155 0.0 0.0 0.00 0.00 0.00 31 1006.0
20191020014703 66 166 0.0 0.0 0.00 0.00 0.00 31 1006.0
20191020013235 67 181 0.0 2.0 0.00 0.00 0.00 30 1005.9
20191020011643 68 210 0.0 4.0 0.00 0.00 0.00 28 1005.9
20191020010139 69 228 1.0 5.0 0.00 0.00 0.00 27 1005.9
20191020004737 70 215 2.0 8.0 0.00 0.00 0.00 26 1005.7
20191020003132 70 226 3.0 7.0 0.00 0.00 0.00 26 1005.7
20191020001724 71 235 4.0 11.0 0.00 0.00 0.00 25 1005.8
20191020000157 72 218 5.0 9.0 0.00 0.00 0.00 24 1005.9
20191019234647 73 238 1.0 9.0 0.00 0.00 0.00 24 1005.9
20191019233211 73 240 5.0 10.0 0.00 0.00 0.00 22 1005.9
20191019231639 73 255 6.0 12.0 0.00 0.00 0.00 22 1005.9
20191019230147 73 274 5.0 13.0 0.00 0.00 0.00 22 1005.9
20191019224632 74 243 3.0 9.0 0.00 0.00 0.00 23 1006.0
20191019223117 74 285 3.0 12.0 0.00 0.00 0.00 23 1006.1
20191019221629 73 245 4.0 10.0 0.00 0.00 0.00 24 1006.2
20191019220120 74 148 6.0 11.0 0.00 0.00 0.00 23 1006.1
20191019214643 73 235 6.0 10.0 0.00 0.00 0.00 24 1006.2
20191019213110 73 259 4.0 9.0 0.00 0.00 0.00 24 1006.4
20191019211707 73 267 3.0 11.0 0.00 0.00 0.00 25 1006.6
20191019210139 74 257 1.0 9.0 0.00 0.00 0.00 26 1006.6
20191019204609 73 145 0.0 12.0 0.00 0.00 0.00 24 1006.8
20191019203119 73 252 3.0 7.0 0.00 0.00 0.00 26 1007.0
20191019201607 72 225 1.0 9.0 0.00 0.00 0.00 25 1007.2
20191019200101 72 249 2.0 10.0 0.00 0.00 0.00 26 1007.5
20191019194557 72 288 3.0 8.0 0.00 0.00 0.00 26 1007.8
20191019193058 71 264 0.0 6.0 0.00 0.00 0.00 27 1008.0
20191019191625 71 285 7.0 10.0 0.00 0.00 0.00 25 1008.3
20191019190159 72 264 1.0 5.0 0.00 0.00 0.00 25 1008.5
20191019184639 73 198 3.0 5.0 0.00 0.00 0.00 24 1008.8
20191019183055 70 285 0.0 7.0 0.00 0.00 0.00 25 1009.0
20191019181541 71 231 1.0 8.0 0.00 0.00 0.00 25 1009.3
20191019180058 70 176 0.0 7.0 0.00 0.00 0.00 25 1009.4
20191019174535 70 252 0.0 5.0 0.00 0.00 0.00 28 1009.6
20191019173118 70 181 1.0 3.0 0.00 0.00 0.00 30 1009.7
20191019171525 68 308 0.0 5.0 0.00 0.00 0.00 32 1009.8
20191019170027 68 108 1.0 5.0 0.00 0.00 0.00 31 1009.8
20191019164520 67 238 1.0 3.0 0.00 0.00 0.00 34 1009.8
20191019163013 65 249 0.0 1.0 0.00 0.00 0.00 34 1009.8
20191019161517 65 249 0.0 3.0 0.00 0.00 0.00 37 1009.8
20191019160008 63 240 0.0 4.0 0.00 0.00 0.00 39 1009.8
20191019154512 62 217 1.0 6.0 0.00 0.00 0.00 40 1009.6
20191019153005 62 169 1.0 5.0 0.00 0.00 0.00 41 1009.6
20191019151637 62 205 0.0 2.0 0.00 0.00 0.00 42 1009.3
20191019150159 63 220 0.0 1.0 0.00 0.00 0.00 39 1009.2
20191019144724 62 136 0.0 1.0 0.00 0.00 0.00 40 1009.1
20191019143158 61 167 0.0 3.0 0.00 0.00 0.00 42 1009.0
20191019141628 58 359 0.0 2.0 0.00 0.00 0.00 44 1008.7
20191019140135 56 351 3.0 4.0 0.00 0.00 0.00 46 1008.4
20191019134641 57 336 1.0 3.0 0.00 0.00 0.00 45 1008.4
20191019133150 57 348 0.0 3.0 0.00 0.00 0.00 45 1008.2
20191019131701 56 343 1.0 5.0 0.00 0.00 0.00 46 1008.1
20191019130204 55 349 2.0 4.0 0.00 0.00 0.00 47 1008.0
20191019124658 55 338 2.0 4.0 0.00 0.00 0.00 48 1008.0
20191019123209 53 349 0.0 1.0 0.00 0.00 0.00 51 1007.8
20191019121652 53 349 0.0 0.0 0.00 0.00 0.00 50 1007.7
20191019120109 54 345 0.0 1.0 0.00 0.00 0.00 48 1007.7
20191019114639 55 346 0.0 0.0 0.00 0.00 0.00 49 1007.4
20191019113126 55 347 0.0 1.0 0.00 0.00 0.00 46 1007.3
20191019111650 56 349 0.0 3.0 0.00 0.00 0.00 44 1007.0
20191019110105 57 341 0.0 1.0 0.00 0.00 0.00 43 1006.8
20191019104546 56 341 0.0 3.0 0.00 0.00 0.00 44 1006.6
20191019101543 56 324 2.0 5.0 0.00 0.00 0.00 45 1006.5
20191019100108 57 335 1.0 4.0 0.00 0.00 0.00 42 1006.4
20191019094530 59 312 0.0 5.0 0.00 0.00 0.00 42 1006.3
20191019093027 59 336 2.0 6.0 0.00 0.00 0.00 40 1006.2
20191019091516 60 324 4.0 9.0 0.00 0.00 0.00 39 1006.2
20191019090022 60 333 3.0 9.0 0.00 0.00 0.00 39 1006.1
20191019084526 60 334 3.0 8.0 0.00 0.00 0.00 38 1006.1
20191019083010 60 353 3.0 7.0 0.00 0.00 0.00 38 1006.2
20191019081526 60 7 0.0 6.0 0.00 0.00 0.00 38 1006.1
20191019080018 61 8 3.0 8.0 0.00 0.00 0.00 37 1005.9
20191019074502 61 340 2.0 8.0 0.00 0.00 0.00 37 1005.7
20191019073241 61 339 2.0 7.0 0.00 0.00 0.00 36 1005.6
20191019071815 61 353 4.0 8.0 0.00 0.00 0.00 37 1005.4
20191019070216 61 358 2.0 8.0 0.00 0.00 0.00 37 1005.2
20191019064700 62 344 2.0 7.0 0.00 0.00 0.00 36 1005.3
20191019063134 62 349 2.0 9.0 0.00 0.00 0.00 35 1005.2
20191019061635 63 295 3.0 11.0 0.00 0.00 0.00 34 1005.0
20191019060141 63 304 3.0 10.0 0.00 0.00 0.00 35 1004.9
20191019054625 63 356 4.0 8.0 0.00 0.00 0.00 36 1005.0
20191019053138 63 343 3.0 8.0 0.00 0.00 0.00 35 1005.0
20191019051559 63 333 1.0 7.0 0.00 0.00 0.00 35 1005.0
20191019050119 63 340 2.0 7.0 0.00 0.00 0.00 35 1004.8
20191019044556 64 309 5.0 12.0 0.00 0.00 0.00 36 1004.7
20191019043116 63 297 3.0 7.0 0.00 0.00 0.00 37 1004.7
20191019041544 63 347 3.0 7.0 0.00 0.00 0.00 38 1004.4
20191019040048 64 347 3.0 9.0 0.00 0.00 0.00 39 1004.2
20191019034617 64 330 2.0 6.0 0.00 0.00 0.00 41 1004.0
20191019033106 64 338 3.0 8.0 0.00 0.00 0.00 42 1003.9
20191019031550 65 333 3.0 8.0 0.00 0.00 0.00 41 1003.8
20191019030057 65 330 2.0 6.0 0.00 0.00 0.00 40 1003.5